createdAt,value
2017-03-26T00:07:27.575Z,7
2017-03-26T00:17:27.635Z,8
2017-03-26T00:27:27.511Z,7
2017-03-26T00:37:27.573Z,7
2017-03-26T00:47:27.541Z,8
2017-03-26T00:57:27.555Z,9
2017-03-26T01:07:27.617Z,9
2017-03-26T01:17:27.485Z,11
2017-03-26T01:27:27.579Z,10
2017-03-26T01:37:27.527Z,11
2017-03-26T01:47:27.518Z,13
2017-03-26T01:57:27.554Z,16
2017-03-26T02:07:27.518Z,15
2017-03-26T02:17:27.485Z,15
2017-03-26T02:27:27.536Z,14
2017-03-26T02:37:27.549Z,16
2017-03-26T02:47:27.489Z,13
2017-03-26T02:57:27.500Z,13
2017-03-26T03:07:27.480Z,15
2017-03-26T03:17:27.507Z,13
2017-03-26T03:27:27.532Z,13
2017-03-26T03:37:27.471Z,13
2017-03-26T03:47:27.558Z,14
2017-03-26T03:57:27.537Z,14
2017-03-26T04:07:27.448Z,15
2017-03-26T04:17:27.558Z,14
2017-03-26T04:27:27.527Z,15
2017-03-26T04:37:27.541Z,17
2017-03-26T04:47:27.473Z,20
2017-03-26T04:57:27.466Z,20
2017-03-26T05:07:27.528Z,22
2017-03-26T05:17:27.481Z,23
2017-03-26T05:27:27.452Z,22
2017-03-26T05:37:27.429Z,22
2017-03-26T05:47:27.494Z,22
2017-03-26T05:57:27.467Z,21
2017-03-26T06:07:27.496Z,23
2017-03-26T06:17:27.538Z,21
2017-03-26T06:27:27.497Z,19
2017-03-26T06:37:27.592Z,22
2017-03-26T06:47:27.544Z,21
2017-03-26T06:57:27.582Z,26
2017-03-26T07:07:27.569Z,19
2017-03-26T07:17:27.627Z,26
2017-03-26T07:27:27.609Z,25
2017-03-26T07:37:27.574Z,19
2017-03-26T07:47:27.568Z,17
2017-03-26T07:57:27.529Z,17
2017-03-26T08:07:27.547Z,19
2017-03-26T08:17:27.595Z,17
2017-03-26T08:27:27.623Z,16
2017-03-26T08:37:27.602Z,17
2017-03-26T08:47:27.665Z,16
2017-03-26T08:57:27.591Z,16
2017-03-26T09:07:27.623Z,16
2017-03-26T09:17:27.624Z,14
2017-03-26T09:27:27.621Z,14
2017-03-26T09:37:27.652Z,13
2017-03-26T09:47:27.649Z,12
2017-03-26T09:57:27.656Z,13
2017-03-26T10:07:27.717Z,11
2017-03-26T10:17:27.810Z,10
2017-03-26T10:27:27.663Z,10
2017-03-26T10:37:27.721Z,9
2017-03-26T10:47:27.712Z,7
2017-03-26T10:57:27.742Z,7
2017-03-26T11:07:27.822Z,7
2017-03-26T11:17:27.767Z,7
2017-03-26T11:27:27.743Z,6
2017-03-26T11:37:27.813Z,7
2017-03-26T11:47:27.744Z,7
2017-03-26T11:57:27.733Z,9
2017-03-26T12:46:50.623Z,11
2017-03-26T12:56:50.612Z,11
2017-03-26T13:06:50.666Z,10
2017-03-26T13:16:50.845Z,8
2017-03-26T13:26:50.525Z,6
2017-03-26T13:36:50.637Z,8
2017-03-26T13:46:50.714Z,9
2017-03-26T13:56:50.658Z,9
2017-03-26T14:06:50.714Z,9
2017-03-26T14:16:52.235Z,9
2017-03-26T14:26:50.602Z,10
2017-03-26T14:36:51.109Z,11
2017-03-26T14:46:50.664Z,9
2017-03-26T14:56:50.917Z,10
2017-03-26T15:06:50.695Z,11
2017-03-26T15:16:51.431Z,9
2017-03-26T15:26:51.287Z,10
2017-03-26T15:36:50.716Z,10
2017-03-26T15:46:50.736Z,11
2017-03-26T15:56:50.667Z,12
2017-03-26T16:06:50.686Z,13
2017-03-26T16:16:50.826Z,16
2017-03-26T20:17:36.289Z,19
